createdAt,value
2022-11-05T00:02:18.471Z,3.95
2022-11-05T00:05:38.950Z,3.63
2022-11-05T00:09:00.411Z,3.90
2022-11-05T00:12:30.195Z,3.90
2022-11-05T00:15:50.740Z,5.20
2022-11-05T00:19:08.051Z,7.28
2022-11-05T00:22:28.221Z,7.68
2022-11-05T00:25:30.370Z,8.55
2022-11-05T00:28:32.508Z,9.65
2022-11-05T00:31:34.376Z,9.45
2022-11-05T00:34:36.229Z,8.75
2022-11-05T00:37:38.443Z,8.45
2022-11-05T00:40:40.473Z,8.23
2022-11-05T00:44:01.312Z,9.18
2022-11-05T00:47:21.810Z,9.38
2022-11-05T00:50:24.502Z,9.52
2022-11-05T00:53:26.204Z,9.40
2022-11-05T00:56:28.239Z,9.45
2022-11-05T00:59:30.005Z,9.80
2022-11-05T01:02:31.836Z,10.00
2022-11-05T01:05:34.992Z,9.52
2022-11-05T01:08:37.451Z,9.95
2022-11-05T01:11:41.835Z,9.93
2022-11-05T01:14:43.628Z,9.77
2022-11-05T01:17:46.194Z,10.00
2022-11-05T01:20:48.219Z,10.13
2022-11-05T01:23:50.024Z,10.20
2022-11-05T01:26:52.001Z,10.25
2022-11-05T01:29:53.712Z,10.52
2022-11-05T01:32:55.642Z,10.05
2022-11-05T01:35:57.783Z,9.80
2022-11-05T01:38:59.707Z,9.73
2022-11-05T01:42:01.900Z,9.10
2022-11-05T01:45:07.455Z,9.23
2022-11-05T01:48:34.315Z,9.57
2022-11-05T01:51:36.117Z,9.10
2022-11-05T01:54:41.009Z,9.70
2022-11-05T01:57:42.731Z,8.70
2022-11-05T02:00:45.182Z,9.48
2022-11-05T02:03:48.917Z,10.02
2022-11-05T02:06:53.150Z,9.25
2022-11-05T02:10:03.327Z,8.30
2022-11-05T02:13:05.356Z,9.68
2022-11-05T02:16:39.816Z,9.13
2022-11-05T02:19:56.431Z,8.57
2022-11-05T02:23:17.033Z,9.18
2022-11-05T02:26:37.246Z,8.40
2022-11-05T02:29:50.843Z,8.70
2022-11-05T02:36:44.489Z,8.95
2022-11-05T02:40:15.488Z,7.63
2022-11-05T02:43:37.957Z,8.48
2022-11-05T02:47:18.312Z,8.02
2022-11-05T02:50:25.487Z,7.53
2022-11-05T02:53:48.989Z,7.60
2022-11-05T02:56:53.928Z,7.20
2022-11-05T03:00:05.480Z,7.68
2022-11-05T03:03:31.566Z,7.72
2022-11-05T03:07:10.073Z,7.45
2022-11-05T03:10:45.493Z,7.15
2022-11-05T03:14:02.671Z,7.10
2022-11-05T03:17:22.718Z,6.35
2022-11-05T03:20:36.473Z,6.55
2022-11-05T03:23:52.715Z,6.60
2022-11-05T03:27:10.908Z,6.00
2022-11-05T03:30:14.476Z,6.22
2022-11-05T03:33:20.816Z,5.72
2022-11-05T03:36:31.416Z,5.10
2022-11-05T03:39:42.603Z,5.40
2022-11-05T03:42:49.504Z,5.60
2022-11-05T03:45:57.370Z,4.70
2022-11-05T03:49:03.780Z,5.20
2022-11-05T03:52:14.466Z,5.10
2022-11-05T03:55:16.910Z,5.53
2022-11-05T03:58:21.895Z,4.80
2022-11-05T04:01:24.416Z,4.93
2022-11-05T04:04:26.842Z,4.70
2022-11-05T04:07:47.062Z,5.43
2022-11-05T04:11:07.290Z,5.32
2022-11-05T04:14:09.108Z,5.28
2022-11-05T04:17:10.834Z,4.95
2022-11-05T04:20:31.405Z,5.40
2022-11-05T04:23:51.912Z,5.03
2022-11-05T04:26:53.853Z,4.47
2022-11-05T04:30:14.134Z,5.00
2022-11-05T04:33:17.290Z,4.93
2022-11-05T04:36:19.615Z,4.60
2022-11-05T04:39:22.032Z,4.93
2022-11-05T04:42:24.273Z,4.93
2022-11-05T04:45:28.484Z,4.88
2022-11-05T04:48:30.676Z,4.35
2022-11-05T04:51:32.405Z,4.50
2022-11-05T04:54:34.282Z,4.53
2022-11-05T04:57:36.491Z,5.03
2022-11-05T05:00:38.420Z,4.22
2022-11-05T05:03:40.577Z,4.53
2022-11-05T05:06:42.253Z,4.70
2022-11-05T05:09:44.693Z,4.68
2022-11-05T05:12:46.450Z,5.13
2022-11-05T05:15:48.863Z,4.85
2022-11-05T05:18:51.680Z,5.55
2022-11-05T05:21:53.373Z,5.03
2022-11-05T05:24:56.588Z,5.65
2022-11-05T05:27:58.662Z,5.50
2022-11-05T05:31:01.510Z,5.82
2022-11-05T05:34:04.229Z,6.43
2022-11-05T05:37:07.056Z,5.57
2022-11-05T05:40:09.634Z,6.70
2022-11-05T05:43:12.574Z,7.00
2022-11-05T05:46:17.314Z,6.65
2022-11-05T05:49:19.152Z,7.18
2022-11-05T05:52:21.089Z,7.38
2022-11-05T05:55:22.891Z,7.60
2022-11-05T05:58:29.562Z,7.25
2022-11-05T06:01:31.632Z,7.43
2022-11-05T06:04:33.625Z,7.68
2022-11-05T06:07:37.413Z,8.23
2022-11-05T06:10:39.761Z,8.68
2022-11-05T06:13:41.525Z,8.73
2022-11-05T06:16:43.271Z,8.40
2022-11-05T06:19:45.096Z,9.00
2022-11-05T06:22:57.515Z,9.18
2022-11-05T06:26:01.350Z,9.80
2022-11-05T06:29:03.293Z,10.00
2022-11-05T06:32:05.427Z,10.45
2022-11-05T06:35:07.368Z,11.10
2022-11-05T06:38:09.122Z,11.48
2022-11-05T06:41:11.055Z,11.32
2022-11-05T06:44:13.423Z,11.43
2022-11-05T06:47:15.433Z,12.60
2022-11-05T06:50:17.147Z,12.45
2022-11-05T06:53:18.917Z,12.55
2022-11-05T06:56:20.765Z,11.07
2022-11-05T06:59:22.493Z,11.70
2022-11-05T07:02:24.291Z,12.90
2022-11-05T07:05:26.289Z,12.57
2022-11-05T07:08:32.126Z,12.73
2022-11-05T07:11:34.080Z,12.55
2022-11-05T07:14:38.839Z,14.65
2022-11-05T07:17:40.903Z,17.85
2022-11-05T07:20:42.689Z,22.77
2022-11-05T07:23:44.758Z,23.73
2022-11-05T07:26:46.429Z,20.73
2022-11-05T07:29:48.379Z,16.08
2022-11-05T07:32:50.125Z,13.40
2022-11-05T07:35:52.202Z,12.43
2022-11-05T07:38:58.900Z,11.52
2022-11-05T07:42:02.886Z,11.05
2022-11-05T07:45:05.784Z,10.13
2022-11-05T07:48:08.408Z,10.50
2022-11-05T07:51:10.118Z,10.13
2022-11-05T07:54:11.944Z,11.15
2022-11-05T07:57:15.307Z,11.07
2022-11-05T08:03:23.402Z,13.23
2022-11-05T08:06:25.237Z,19.60
2022-11-05T08:09:27.728Z,17.92
2022-11-05T08:12:30.295Z,14.63
2022-11-05T08:15:32.749Z,10.27
2022-11-05T08:18:34.689Z,9.23
2022-11-05T08:21:36.601Z,10.23
2022-11-05T08:24:38.564Z,8.77
2022-11-05T08:27:40.755Z,9.20
2022-11-05T08:30:42.524Z,8.30
2022-11-05T08:33:44.212Z,9.40
2022-11-05T08:36:47.221Z,12.02
2022-11-05T08:39:48.901Z,23.13
2022-11-05T08:42:51.879Z,26.30
2022-11-05T08:45:55.057Z,16.85
2022-11-05T08:48:56.991Z,13.63
2022-11-05T08:51:58.701Z,10.60
2022-11-05T08:55:00.447Z,10.15
2022-11-05T08:58:04.515Z,9.90
2022-11-05T09:01:06.577Z,9.43
2022-11-05T09:04:08.595Z,11.57
2022-11-05T09:07:10.434Z,11.45
2022-11-05T09:10:12.646Z,9.57
2022-11-05T09:13:18.852Z,9.82
2022-11-05T09:16:23.818Z,8.82
2022-11-05T09:19:25.607Z,9.35
2022-11-05T09:22:27.284Z,10.35
2022-11-05T09:25:29.158Z,17.92
2022-11-05T09:28:32.342Z,14.13
2022-11-05T09:31:34.034Z,10.38
2022-11-05T09:34:36.155Z,10.02
2022-11-05T09:37:38.156Z,9.57
2022-11-05T09:40:43.602Z,9.05
2022-11-05T09:43:53.270Z,8.70
2022-11-05T09:47:02.788Z,9.18
2022-11-05T09:50:09.216Z,8.27
2022-11-05T09:53:19.497Z,7.75
2022-11-05T09:56:26.367Z,8.70
2022-11-05T09:59:47.133Z,7.97
2022-11-05T10:02:55.555Z,15.50
2022-11-05T10:06:10.038Z,17.27
2022-11-05T10:09:43.446Z,18.60
2022-11-05T10:12:55.341Z,10.75
2022-11-05T10:16:27.410Z,8.43
2022-11-05T10:19:48.152Z,8.48
2022-11-05T10:22:55.875Z,7.60
2022-11-05T10:26:03.144Z,7.80
2022-11-05T10:29:05.825Z,8.40
2022-11-05T10:32:07.956Z,9.07
2022-11-05T10:35:16.767Z,8.95
2022-11-05T10:38:19.116Z,15.10
2022-11-05T10:41:33.204Z,18.23
2022-11-05T10:44:57.184Z,13.00
2022-11-05T10:48:24.215Z,9.07
2022-11-05T10:51:26.878Z,7.70
2022-11-05T10:54:34.397Z,6.78
2022-11-05T10:57:41.029Z,7.00
2022-11-05T11:00:45.081Z,7.10
2022-11-05T11:03:51.166Z,7.63
2022-11-05T11:06:58.645Z,7.57
2022-11-05T11:10:00.560Z,7.47
2022-11-05T11:13:03.128Z,7.88
2022-11-05T11:16:26.476Z,7.00
2022-11-05T11:19:32.294Z,6.95
2022-11-05T11:22:34.671Z,7.35
2022-11-05T11:25:58.278Z,6.95
2022-11-05T11:29:14.729Z,6.60
2022-11-05T11:32:19.553Z,5.55
2022-11-05T11:35:24.019Z,5.28
2022-11-05T11:38:29.835Z,4.55
2022-11-05T11:41:41.950Z,4.97
2022-11-05T11:44:47.947Z,4.63
2022-11-05T11:47:51.028Z,4.15
2022-11-05T11:50:52.994Z,4.95
2022-11-05T11:53:58.738Z,3.90
2022-11-05T11:57:00.800Z,3.17
2022-11-05T12:00:08.754Z,3.83
2022-11-05T12:03:24.124Z,3.38
2022-11-05T12:06:35.976Z,2.90
2022-11-05T12:10:01.238Z,2.85
2022-11-05T12:13:38.673Z,2.97
2022-11-05T12:16:57.338Z,2.50
2022-11-05T12:20:24.372Z,2.95
2022-11-05T12:23:50.238Z,2.92
2022-11-05T12:27:07.761Z,2.97
2022-11-05T12:30:17.220Z,2.95
2022-11-05T12:33:21.824Z,2.53
2022-11-05T12:36:56.251Z,2.80
2022-11-05T12:40:34.866Z,2.45
2022-11-05T12:43:59.228Z,3.13
2022-11-05T12:47:15.784Z,2.50
2022-11-05T12:50:38.803Z,2.53
2022-11-05T12:54:11.836Z,2.23
2022-11-05T12:57:15.038Z,1.88
2022-11-05T13:00:19.296Z,2.58
2022-11-05T13:03:46.230Z,2.28
2022-11-05T13:06:51.651Z,2.10
2022-11-05T13:10:15.699Z,2.72
2022-11-05T13:13:26.157Z,1.70
2022-11-05T13:16:35.067Z,1.85
2022-11-05T13:19:54.035Z,2.00
2022-11-05T13:23:07.159Z,1.45
2022-11-05T13:26:19.979Z,2.35
2022-11-05T13:29:39.392Z,2.03
2022-11-05T13:32:51.937Z,2.25
2022-11-05T13:36:26.235Z,1.63
2022-11-05T13:39:30.783Z,2.20
2022-11-05T13:43:01.112Z,2.08
2022-11-05T13:46:43.474Z,1.98
2022-11-05T13:50:14.179Z,2.58
2022-11-05T13:53:50.588Z,2.25
2022-11-05T13:57:26.675Z,2.30
2022-11-05T14:00:32.992Z,2.95
2022-11-05T14:03:35.452Z,2.70
2022-11-05T14:06:37.938Z,4.55
2022-11-05T14:09:41.480Z,3.10
2022-11-05T14:12:49.207Z,2.50
2022-11-05T14:16:10.339Z,2.40
2022-11-05T14:19:21.154Z,2.42
2022-11-05T14:22:31.600Z,2.42
2022-11-05T14:25:36.539Z,2.20
2022-11-05T14:28:40.300Z,1.80
2022-11-05T14:32:08.955Z,2.15
2022-11-05T14:35:17.341Z,1.75
2022-11-05T14:38:25.397Z,2.08
2022-11-05T14:41:27.698Z,1.85
2022-11-05T14:44:33.434Z,1.80
2022-11-05T14:47:40.620Z,2.25
2022-11-05T14:50:42.899Z,2.00
2022-11-05T14:53:45.101Z,1.80
2022-11-05T14:56:53.216Z,2.15
2022-11-05T15:00:01.142Z,1.90
2022-11-05T15:03:25.735Z,2.28
2022-11-05T15:06:36.032Z,2.10
2022-11-05T15:09:46.804Z,2.05
2022-11-05T15:12:53.893Z,2.50
2022-11-05T15:15:56.652Z,2.30
2022-11-05T15:18:59.841Z,2.85
2022-11-05T15:22:06.960Z,2.40
2022-11-05T15:25:18.788Z,2.65
2022-11-05T15:28:35.709Z,2.72
2022-11-05T15:31:41.222Z,2.80
2022-11-05T15:34:52.133Z,2.75
2022-11-05T15:38:01.728Z,3.72
2022-11-05T15:41:12.996Z,2.83
2022-11-05T15:44:38.867Z,2.63
2022-11-05T15:47:46.396Z,3.38
2022-11-05T15:50:48.168Z,3.33
2022-11-05T15:57:26.016Z,2.70
2022-11-05T16:00:30.682Z,2.85
2022-11-05T16:03:37.840Z,2.25
2022-11-05T16:06:41.794Z,2.47
2022-11-05T16:09:53.153Z,2.63
2022-11-05T16:12:55.359Z,3.00
2022-11-05T16:16:00.508Z,3.10
2022-11-05T16:19:22.356Z,3.25
2022-11-05T16:22:24.564Z,3.30
2022-11-05T16:25:37.042Z,2.97
2022-11-05T16:28:38.823Z,3.30
2022-11-05T16:31:40.679Z,3.20
2022-11-05T16:34:48.258Z,3.72
2022-11-05T16:37:52.430Z,3.78
2022-11-05T16:40:54.341Z,4.13
2022-11-05T16:43:59.278Z,3.33
2022-11-05T16:47:00.944Z,3.55
2022-11-05T16:50:09.523Z,4.13
2022-11-05T16:53:12.234Z,4.05
2022-11-05T16:56:19.926Z,3.83
2022-11-05T16:59:24.876Z,4.22
2022-11-05T17:02:27.804Z,3.97
2022-11-05T17:05:31.344Z,4.50
2022-11-05T17:08:33.096Z,5.25
2022-11-05T17:11:34.874Z,5.15
2022-11-05T17:14:37.036Z,5.60
2022-11-05T17:17:38.844Z,6.72
2022-11-05T17:20:46.518Z,6.45
2022-11-05T17:23:48.444Z,6.28
2022-11-05T17:26:50.619Z,6.63
2022-11-05T17:29:52.313Z,6.75
2022-11-05T17:32:54.270Z,7.05
2022-11-05T17:35:56.661Z,6.35
2022-11-05T17:38:58.650Z,6.75
2022-11-05T17:42:00.728Z,7.63
2022-11-05T17:45:03.160Z,6.88
2022-11-05T17:48:06.394Z,7.38
2022-11-05T17:51:13.305Z,7.70
2022-11-05T17:54:16.061Z,7.78
2022-11-05T17:57:18.205Z,8.23
2022-11-05T18:00:23.198Z,8.43
2022-11-05T18:03:24.964Z,7.40
2022-11-05T18:06:27.071Z,7.43
2022-11-05T18:09:29.151Z,7.82
2022-11-05T18:12:30.883Z,7.10
2022-11-05T18:15:33.256Z,6.78
2022-11-05T18:18:35.185Z,7.63
2022-11-05T18:21:37.001Z,7.75
2022-11-05T18:24:38.681Z,6.88
2022-11-05T18:27:41.246Z,6.72
2022-11-05T18:30:43.251Z,7.37
2022-11-05T18:33:45.123Z,7.13
2022-11-05T18:36:50.851Z,7.22
2022-11-05T18:39:55.258Z,7.07
2022-11-05T18:42:57.619Z,7.25
2022-11-05T18:45:59.329Z,7.18
2022-11-05T18:49:01.811Z,6.90
2022-11-05T18:52:04.619Z,6.80
2022-11-05T18:55:07.404Z,6.70
2022-11-05T18:58:09.417Z,7.07
2022-11-05T19:01:22.505Z,6.47
2022-11-05T19:04:24.803Z,6.85
2022-11-05T19:07:26.715Z,6.30
2022-11-05T19:10:28.583Z,6.72
2022-11-05T19:13:30.246Z,7.07
2022-11-05T19:16:32.360Z,7.60
2022-11-05T19:19:34.451Z,7.07
2022-11-05T19:22:36.441Z,6.50
2022-11-05T19:25:39.023Z,5.90
2022-11-05T19:28:41.349Z,6.13
2022-11-05T19:31:43.301Z,6.32
2022-11-05T19:34:45.324Z,5.90
2022-11-05T19:37:47.006Z,6.40
2022-11-05T19:40:49.086Z,6.07
2022-11-05T19:43:54.241Z,5.90
2022-11-05T19:46:56.022Z,6.15
2022-11-05T19:49:57.983Z,6.03
2022-11-05T19:53:00.268Z,5.55
2022-11-05T19:56:29.764Z,5.47
2022-11-05T19:59:31.479Z,5.60
2022-11-05T20:02:33.294Z,5.20
2022-11-05T20:05:35.343Z,6.45
2022-11-05T20:08:53.336Z,5.00
2022-11-05T20:11:59.379Z,5.68
2022-11-05T20:15:02.748Z,6.35
2022-11-05T20:21:09.419Z,4.75
2022-11-05T20:24:13.283Z,5.47
2022-11-05T20:27:16.428Z,5.20
2022-11-05T20:30:18.973Z,6.20
2022-11-05T20:33:20.818Z,6.30
2022-11-05T20:36:24.860Z,6.85
2022-11-05T20:39:26.793Z,6.78
2022-11-05T20:42:28.826Z,5.18
2022-11-05T20:45:31.082Z,6.38
2022-11-05T20:48:34.376Z,5.32
2022-11-05T20:51:36.297Z,5.22
2022-11-05T20:54:38.513Z,4.88
2022-11-05T20:57:40.521Z,5.22
2022-11-05T21:00:50.145Z,4.47
2022-11-05T21:03:51.868Z,4.75
2022-11-05T21:06:53.734Z,4.45
2022-11-05T21:09:55.907Z,4.68
2022-11-05T21:12:57.793Z,4.90
2022-11-05T21:16:00.579Z,4.63
2022-11-05T21:19:02.379Z,4.25
2022-11-05T21:22:05.897Z,4.05
2022-11-05T21:25:08.364Z,5.00
2022-11-05T21:28:12.277Z,4.47
2022-11-05T21:31:14.499Z,4.20
2022-11-05T21:34:17.817Z,3.88
2022-11-05T21:37:20.681Z,4.50
2022-11-05T21:40:22.740Z,4.50
2022-11-05T21:43:24.853Z,4.13
2022-11-05T21:46:26.602Z,4.10
2022-11-05T21:49:28.281Z,3.95
2022-11-05T21:52:48.535Z,3.90
2022-11-05T21:56:08.842Z,4.18
2022-11-05T21:59:33.496Z,4.28
2022-11-05T22:02:35.514Z,3.83
2022-11-05T22:05:37.633Z,3.70
2022-11-05T22:08:39.411Z,3.63
2022-11-05T22:11:41.141Z,3.75
2022-11-05T22:14:43.169Z,3.40
2022-11-05T22:17:47.149Z,3.60
2022-11-05T22:20:49.239Z,3.65
2022-11-05T22:23:52.525Z,3.60
2022-11-05T22:26:54.331Z,4.45
2022-11-05T22:29:56.075Z,3.58
2022-11-05T22:32:57.870Z,3.72
2022-11-05T22:35:59.585Z,4.00
2022-11-05T22:39:01.605Z,3.33
2022-11-05T22:42:08.308Z,3.67
2022-11-05T22:45:10.930Z,3.67
2022-11-05T22:48:13.187Z,3.42
2022-11-05T22:51:20.880Z,3.30
2022-11-05T22:54:22.578Z,3.22
2022-11-05T22:57:24.363Z,3.17
2022-11-05T23:00:35.686Z,3.08
2022-11-05T23:03:38.931Z,3.47
2022-11-05T23:06:59.589Z,3.67
2022-11-05T23:10:20.231Z,3.00
2022-11-05T23:13:22.016Z,2.92
2022-11-05T23:16:42.191Z,2.85
2022-11-05T23:20:02.464Z,2.90
2022-11-05T23:23:22.932Z,2.83
2022-11-05T23:26:43.862Z,2.88
2022-11-05T23:29:46.243Z,3.00
2022-11-05T23:32:49.201Z,2.85
2022-11-05T23:36:09.706Z,2.90
2022-11-05T23:39:11.407Z,2.75
2022-11-05T23:42:31.886Z,2.42
2022-11-05T23:45:53.025Z,2.75
2022-11-05T23:48:54.964Z,2.60
2022-11-05T23:51:56.919Z,3.08
2022-11-05T23:54:58.627Z,2.40
2022-11-05T23:58:00.500Z,2.80
